Time;durP1;ratioP1;P1;durP2;ratioP2;P2;SDS_P1;SDS_P2;PMS_P1;PMS_P2;Temp;Humidity;BMP_temperature;BMP_pressure;BME280_temperature;BME280_humidity;BME280_pressure;Samples;Min_cycle;Max_cycle;Signal;HPM_P1;HPM_P2
2023/08/27 00:00:35;;;;;;;5.72;2.00;;;;;;;17.46;74.89;101146.00;7399332;19;20037;-57
2023/08/27 00:03:02;;;;;;;6.13;2.20;;;;;;;17.51;74.87;101146.41;7399607;19;20022;-58
2023/08/27 00:05:30;;;;;;;3.03;2.13;;;;;;;17.58;74.70;101146.63;7397624;19;20028;-57
2023/08/27 00:07:58;;;;;;;4.28;2.38;;;;;;;17.25;75.50;101137.38;7397234;19;20086;-57
2023/08/27 00:10:25;;;;;;;3.88;2.22;;;;;;;17.14;76.93;101130.34;7396631;19;20019;-57
2023/08/27 00:12:52;;;;;;;7.82;2.40;;;;;;;17.24;76.36;101119.59;7395778;19;20497;-56
2023/08/27 00:15:20;;;;;;;3.45;2.22;;;;;;;17.27;76.15;101111.28;7399082;19;20380;-55
2023/08/27 00:17:47;;;;;;;3.92;2.30;;;;;;;17.30;75.60;101109.16;7398831;19;20014;-57
2023/08/27 00:20:15;;;;;;;3.25;1.90;;;;;;;17.28;75.63;101111.16;7399257;19;20010;-56
2023/08/27 00:22:42;;;;;;;4.50;2.08;;;;;;;17.25;75.75;101094.53;7400585;19;20018;-58
2023/08/27 00:25:10;;;;;;;4.78;2.35;;;;;;;17.22;75.26;101092.16;7397768;19;20014;-56
2023/08/27 00:27:37;;;;;;;5.15;2.30;;;;;;;17.19;75.73;101095.97;7398859;19;20035;-56
2023/08/27 00:30:05;;;;;;;3.70;2.33;;;;;;;17.20;75.65;101102.16;7398578;19;20043;-56
2023/08/27 00:32:33;;;;;;;5.28;2.35;;;;;;;17.25;74.90;101098.06;7398201;19;20475;-57
2023/08/27 00:35:03;;;;;;;9.38;2.63;;;;;;;17.27;75.02;101101.41;7400999;19;20018;-57
2023/08/27 00:37:31;;;;;;;4.85;2.45;;;;;;;17.22;75.04;101087.63;7399187;19;20042;-54
2023/08/27 00:39:58;;;;;;;6.40;2.60;;;;;;;17.14;75.13;101076.84;7398813;19;20024;-55
2023/08/27 00:42:26;;;;;;;4.22;2.30;;;;;;;17.10;75.13;101074.59;7399805;19;20022;-55
2023/08/27 00:44:53;;;;;;;4.75;2.45;;;;;;;17.10;75.38;101069.25;7399389;19;20014;-54
2023/08/27 00:47:21;;;;;;;4.63;2.35;;;;;;;17.02;75.28;101083.38;7400458;19;20022;-53
2023/08/27 00:49:49;;;;;;;5.72;2.58;;;;;;;16.98;75.36;101072.13;7400694;19;20027;-53
2023/08/27 00:52:17;;;;;;;4.93;2.60;;;;;;;16.98;75.48;101079.28;7397534;19;20015;-55
2023/08/27 00:54:45;;;;;;;3.90;2.25;;;;;;;16.94;75.12;101078.75;7400518;19;20031;-57
2023/08/27 00:57:14;;;;;;;5.18;2.50;;;;;;;16.97;75.13;101094.47;7398553;19;20015;-56
2023/08/27 00:59:42;;;;;;;5.70;2.53;;;;;;;16.83;75.38;101097.66;7399178;19;20508;-55
2023/08/27 01:02:10;;;;;;;6.22;2.88;;;;;;;16.83;75.63;101099.47;7395089;19;20082;-57
2023/08/27 01:04:37;;;;;;;5.50;2.60;;;;;;;16.81;75.88;101105.81;7399219;19;20364;-57
2023/08/27 01:07:14;;;;;;;3.47;2.22;;;;;;;16.93;75.33;101110.97;7396843;19;20019;-56
2023/08/27 01:09:50;;;;;;;3.53;2.00;;;;;;;16.93;75.40;101110.97;7398124;19;20023;-56
2023/08/27 01:12:28;;;;;;;3.70;2.10;;;;;;;16.93;75.53;101113.66;7395189;19;20022;-56
2023/08/27 01:14:58;;;;;;;4.93;2.47;;;;;;;16.91;75.47;101105.78;7398778;19;20078;-57
2023/08/27 01:17:26;;;;;;;4.82;2.60;;;;;;;16.86;75.52;101112.53;7399458;19;20043;-57
2023/08/27 01:19:53;;;;;;;4.35;2.50;;;;;;;16.85;75.57;101106.34;7399846;19;20050;-59
2023/08/27 01:22:21;;;;;;;4.85;2.53;;;;;;;16.87;75.21;101106.22;7399121;19;20022;-58
2023/08/27 01:24:48;;;;;;;4.65;2.58;;;;;;;16.81;75.41;101103.13;7398074;19;20022;-57
2023/08/27 01:27:40;;;;;;;6.78;2.40;;;;;;;16.90;75.00;101109.44;7399467;19;20019;-57
2023/08/27 01:30:17;;;;;;;4.05;2.47;;;;;;;16.88;75.27;101107.91;7397135;19;20058;-58
2023/08/27 01:32:51;;;;;;;3.63;2.20;;;;;;;16.85;75.17;101102.84;7397034;19;20043;-56
2023/08/27 01:35:19;;;;;;;5.13;2.67;;;;;;;16.77;75.39;101091.03;7395953;19;20010;-59
2023/08/27 01:37:47;;;;;;;3.38;2.17;;;;;;;16.74;75.72;101075.28;7396668;19;20018;-57
2023/08/27 01:40:18;;;;;;;4.80;2.33;;;;;;;16.84;75.26;101077.09;7396618;19;20022;-59
2023/08/27 01:42:47;;;;;;;5.18;2.58;;;;;;;16.83;75.14;101067.34;7395047;19;20029;-55
2023/08/27 01:45:15;;;;;;;4.40;2.50;;;;;;;16.83;75.15;101056.66;7395419;19;20047;-52
2023/08/27 01:47:43;;;;;;;6.13;2.40;;;;;;;16.81;75.35;101054.97;7394609;19;20048;-56
2023/08/27 01:50:11;;;;;;;6.93;2.50;;;;;;;16.84;75.17;101050.34;7393815;19;20250;-55
2023/08/27 01:52:38;;;;;;;3.28;2.35;;;;;;;16.84;75.23;101043.16;7394201;19;20082;-55
2023/08/27 01:55:07;;;;;;;5.63;2.78;;;;;;;16.78;75.32;101036.53;7395915;19;20093;-55
2023/08/27 01:57:35;;;;;;;4.80;2.50;;;;;;;16.75;75.51;101018.13;7394210;19;20022;-56
2023/08/27 02:00:05;;;;;;;5.82;2.97;;;;;;;16.85;75.34;101020.75;7395516;19;20027;-55
2023/08/27 02:02:32;;;;;;;5.68;3.05;;;;;;;16.85;74.79;101011.91;7393397;19;20018;-56
2023/08/27 02:05:00;;;;;;;6.18;3.17;;;;;;;16.62;75.32;101008.72;7395294;19;20018;-57
2023/08/27 02:07:28;;;;;;;6.32;3.40;;;;;;;16.48;75.77;101010.88;7395376;19;20026;-58
2023/08/27 02:09:55;;;;;;;7.75;3.72;;;;;;;16.28;76.40;101022.59;7396166;19;20038;-57
2023/08/27 02:12:23;;;;;;;6.28;3.10;;;;;;;16.21;76.69;101018.78;7393259;19;20018;-59
2023/08/27 02:14:50;;;;;;;7.38;3.80;;;;;;;16.43;75.86;101013.13;7393906;19;20018;-59
2023/08/27 02:17:17;;;;;;;5.63;3.45;;;;;;;16.51;75.59;101015.06;7394929;19;20014;-58
2023/08/27 02:19:45;;;;;;;5.32;3.15;;;;;;;16.58;74.87;101002.81;7390036;19;20021;-59
2023/08/27 02:22:12;;;;;;;8.27;3.80;;;;;;;16.56;74.68;101013.66;7392565;19;20040;-58
2023/08/27 02:24:40;;;;;;;6.90;4.05;;;;;;;16.23;76.03;101032.88;7395053;19;20105;-58
2023/08/27 02:27:07;;;;;;;7.63;3.97;;;;;;;16.00;76.69;101048.34;7392832;19;20513;-58
2023/08/27 02:29:35;;;;;;;8.55;3.70;;;;;;;16.08;76.87;101048.50;7393112;19;20051;-58
2023/08/27 02:32:03;;;;;;;9.25;4.72;;;;;;;16.18;76.04;101040.44;7391195;19;20018;-58
2023/08/27 02:34:30;;;;;;;5.57;3.35;;;;;;;15.92;77.49;101038.38;7391586;19;20026;-57
2023/08/27 02:36:58;;;;;;;6.68;3.58;;;;;;;16.09;76.96;101043.00;7394554;19;20021;-57
2023/08/27 02:39:25;;;;;;;6.20;3.78;;;;;;;16.35;75.82;101044.25;7392369;19;20042;-56
2023/08/27 02:41:56;;;;;;;9.25;4.20;;;;;;;16.39;75.56;101035.78;7392869;19;20371;-57
2023/08/27 02:44:23;;;;;;;10.05;4.38;;;;;;;16.36;75.26;101027.22;7392751;19;20022;-58
2023/08/27 02:46:50;;;;;;;9.55;4.13;;;;;;;16.30;75.26;101020.63;7393098;19;20127;-53
2023/08/27 02:49:18;;;;;;;6.20;3.92;;;;;;;16.33;75.17;101017.63;7394744;19;20022;-54
2023/08/27 02:51:45;;;;;;;6.68;3.78;;;;;;;16.38;75.12;101017.22;7391071;19;20074;-54
2023/08/27 02:54:13;;;;;;;6.63;3.42;;;;;;;16.39;74.82;101017.06;7394021;19;20031;-55
2023/08/27 02:56:40;;;;;;;6.05;3.60;;;;;;;16.41;75.10;101027.59;7394776;19;20018;-53
2023/08/27 02:59:07;;;;;;;7.28;3.60;;;;;;;16.40;74.91;101017.91;7394676;19;20028;-53
2023/08/27 03:01:35;;;;;;;7.72;3.58;;;;;;;16.42;74.88;101011.44;7392570;19;20765;-53
2023/08/27 03:04:03;;;;;;;5.90;3.75;;;;;;;16.41;74.94;101019.59;7394090;19;20039;-55
2023/08/27 03:06:30;;;;;;;7.70;4.10;;;;;;;16.07;75.22;101010.25;7393505;19;20025;-58
2023/08/27 03:08:57;;;;;;;9.88;3.90;;;;;;;15.88;76.33;101009.44;7392699;19;20042;-53
2023/08/27 03:11:25;;;;;;;6.25;3.70;;;;;;;16.00;76.04;101005.63;7393142;19;20014;-54
2023/08/27 03:13:52;;;;;;;6.63;3.35;;;;;;;16.14;75.54;100990.97;7393787;19;20019;-53
2023/08/27 03:16:20;;;;;;;6.10;3.80;;;;;;;16.19;75.29;100984.22;7392323;19;20349;-56
2023/08/27 03:18:47;;;;;;;8.10;3.80;;;;;;;16.20;74.99;100983.22;7394854;19;20078;-54
2023/08/27 03:21:14;;;;;;;6.35;3.28;;;;;;;15.94;75.65;100996.31;7392619;19;20015;-54
2023/08/27 03:23:42;;;;;;;6.32;4.28;;;;;;;15.67;76.72;100994.38;7393649;19;20022;-55
2023/08/27 03:26:09;;;;;;;6.78;3.50;;;;;;;15.84;76.80;100985.66;7393790;19;21070;-53
2023/08/27 03:28:37;;;;;;;5.95;3.67;;;;;;;16.03;75.85;100994.66;7395206;19;20035;-54
2023/08/27 03:31:04;;;;;;;6.13;3.55;;;;;;;16.16;75.46;100981.81;7392982;19;20047;-54
2023/08/27 03:33:32;;;;;;;8.15;3.88;;;;;;;16.21;75.10;100976.03;7394737;19;20078;-53
2023/08/27 03:36:00;;;;;;;4.93;3.38;;;;;;;16.18;75.39;100977.19;7394536;19;20023;-53
2023/08/27 03:38:28;;;;;;;6.15;3.45;;;;;;;15.87;76.16;100973.84;7393914;19;20034;-58
2023/08/27 03:40:58;;;;;;;5.57;3.70;;;;;;;15.80;76.47;100978.94;7390381;19;20018;-58
2023/08/27 03:43:26;;;;;;;6.50;3.35;;;;;;;15.81;76.58;100980.59;7391682;19;20029;-58
2023/08/27 03:45:53;;;;;;;6.03;3.72;;;;;;;16.01;76.01;100988.59;7391679;19;20039;-58
2023/08/27 03:48:21;;;;;;;6.05;3.33;;;;;;;16.08;75.73;100987.03;7393098;19;20014;-57
2023/08/27 03:50:48;;;;;;;5.70;3.53;;;;;;;16.15;75.54;100984.66;7391773;19;20082;-57
2023/08/27 03:53:16;;;;;;;5.70;3.20;;;;;;;16.14;75.42;100986.47;7392713;19;20019;-57
2023/08/27 03:55:44;;;;;;;5.60;3.45;;;;;;;16.07;75.31;100983.53;7390914;19;20022;-58
2023/08/27 03:58:11;;;;;;;8.70;3.70;;;;;;;16.11;75.28;100980.59;7392281;19;20505;-57
2023/08/27 04:00:39;;;;;;;6.75;3.50;;;;;;;16.07;74.99;100966.66;7394084;19;20374;-53
2023/08/27 04:03:06;;;;;;;5.63;3.40;;;;;;;16.05;74.79;100965.94;7393161;19;20014;-53
2023/08/27 04:05:34;;;;;;;5.75;3.40;;;;;;;16.00;74.92;100963.72;7392085;19;20388;-54
2023/08/27 04:08:01;;;;;;;7.40;3.60;;;;;;;16.00;74.71;100963.72;7393332;19;20029;-54
2023/08/27 04:10:29;;;;;;;7.28;3.92;;;;;;;15.89;75.19;100955.03;7391074;19;20030;-54
2023/08/27 04:12:56;;;;;;;6.15;3.80;;;;;;;15.67;76.14;100958.81;7393157;19;20022;-57
2023/08/27 04:15:26;;;;;;;7.30;3.90;;;;;;;15.42;76.92;100969.06;7393654;19;20425;-55
2023/08/27 04:17:53;;;;;;;7.63;3.80;;;;;;;15.33;77.21;100965.38;7392241;19;20019;-56
2023/08/27 04:20:21;;;;;;;6.38;3.58;;;;;;;15.60;76.84;100972.69;7392671;19;20082;-57
2023/08/27 04:22:48;;;;;;;6.97;4.30;;;;;;;15.53;76.69;100976.06;7393169;19;20082;-54
2023/08/27 04:25:16;;;;;;;9.82;4.70;;;;;;;15.29;77.91;100971.97;7393777;19;20107;-56
2023/08/27 04:27:44;;;;;;;7.45;4.28;;;;;;;15.46;77.53;100974.94;7391131;19;20036;-58
2023/08/27 04:30:13;;;;;;;8.07;4.78;;;;;;;15.57;76.94;100977.50;7393366;19;20480;-58
2023/08/27 04:32:40;;;;;;;7.88;3.83;;;;;;;15.71;76.68;100970.91;7392666;19;20557;-53
2023/08/27 04:35:08;;;;;;;6.15;3.83;;;;;;;15.87;76.16;100975.66;7392879;19;20036;-56
2023/08/27 04:37:35;;;;;;;5.75;3.75;;;;;;;15.95;75.85;100979.34;7389452;19;20081;-57
2023/08/27 04:40:04;;;;;;;7.78;3.75;;;;;;;16.00;75.95;100994.94;7391001;19;20098;-58
2023/08/27 04:42:31;;;;;;;5.72;3.53;;;;;;;16.07;75.93;101001.41;7394801;19;20533;-57
2023/08/27 04:44:58;;;;;;;6.05;3.85;;;;;;;16.03;75.83;100994.66;7398551;19;20010;-58
2023/08/27 04:47:26;;;;;;;5.63;3.90;;;;;;;15.99;75.92;101007.44;7396136;19;20026;-57
2023/08/27 04:49:53;;;;;;;5.97;3.55;;;;;;;15.95;75.94;100987.34;7398339;19;20021;-60
2023/08/27 04:52:21;;;;;;;6.15;3.30;;;;;;;15.98;75.67;100992.38;7398113;19;20011;-59
2023/08/27 04:54:58;;;;;;;6.50;3.40;;;;;;;16.02;75.48;100995.63;7398793;19;20356;-55
2023/08/27 04:57:26;;;;;;;5.70;3.45;;;;;;;16.08;75.06;100995.06;7399480;19;20085;-53
2023/08/27 04:59:54;;;;;;;6.30;4.38;;;;;;;16.02;75.21;100995.63;7398549;19;20082;-57
2023/08/27 05:02:21;;;;;;;6.72;3.42;;;;;;;15.84;76.52;100993.69;7398813;19;20494;-58
2023/08/27 05:04:50;;;;;;;5.47;3.72;;;;;;;15.87;76.75;100994.38;7400793;19;20019;-57
2023/08/27 05:07:18;;;;;;;6.75;3.67;;;;;;;16.08;76.02;100992.38;7399148;19;20015;-56
2023/08/27 05:09:46;;;;;;;6.15;3.28;;;;;;;16.19;75.53;100984.22;7400411;19;20047;-58
2023/08/27 05:12:14;;;;;;;5.70;3.50;;;;;;;16.22;75.93;100986.59;7394112;19;20017;-53
2023/08/27 05:14:41;;;;;;;6.68;3.60;;;;;;;16.08;76.40;100987.03;7398688;19;20015;-55
2023/08/27 05:17:08;;;;;;;7.95;4.10;;;;;;;16.09;76.66;100989.56;7397270;19;20064;-57
2023/08/27 05:19:36;;;;;;;5.72;3.40;;;;;;;16.17;76.39;100975.47;7396414;19;20020;-57
2023/08/27 05:22:03;;;;;;;5.93;3.42;;;;;;;16.20;76.07;100979.72;7392909;19;20018;-54
2023/08/27 05:24:31;;;;;;;6.57;3.88;;;;;;;16.25;75.88;100985.44;7398049;19;20030;-56
2023/08/27 05:26:58;;;;;;;5.30;3.90;;;;;;;16.06;76.35;100980.97;7396194;19;20551;-57
2023/08/27 05:29:26;;;;;;;6.47;4.25;;;;;;;15.91;77.18;100979.75;7397418;19;20011;-57
2023/08/27 05:31:53;;;;;;;8.88;4.63;;;;;;;15.72;78.21;100978.78;7394025;19;20018;-57
2023/08/27 05:34:21;;;;;;;8.30;4.72;;;;;;;15.65;78.80;100979.47;7398465;19;20284;-57
2023/08/27 05:36:49;;;;;;;7.90;4.43;;;;;;;15.63;78.89;100968.91;7398403;19;20539;-57
2023/08/27 05:39:16;;;;;;;8.20;4.30;;;;;;;15.70;78.45;100970.06;7397775;19;20484;-58
2023/08/27 05:41:43;;;;;;;7.22;4.40;;;;;;;15.90;77.56;100972.72;7393338;19;20370;-58
2023/08/27 05:44:11;;;;;;;9.57;4.43;;;;;;;15.73;77.72;100961.78;7397225;19;20039;-57
2023/08/27 05:46:38;;;;;;;9.35;4.15;;;;;;;15.64;78.34;100962.56;7396538;19;20476;-58
2023/08/27 05:49:06;;;;;;;7.90;4.50;;;;;;;15.68;78.75;100961.38;7396674;19;20043;-58
2023/08/27 05:51:33;;;;;;;7.93;5.10;;;;;;;15.67;78.56;100958.81;7394343;19;20039;-58
2023/08/27 05:54:00;;;;;;;7.70;4.47;;;;;;;15.70;78.67;100956.72;7397169;19;20018;-57
2023/08/27 05:56:28;;;;;;;7.68;4.25;;;;;;;15.77;79.03;100970.34;7397729;19;20025;-58
2023/08/27 05:58:57;;;;;;;5.80;3.80;;;;;;;15.79;79.03;100965.69;7397795;19;20082;-58
2023/08/27 06:01:25;;;;;;;7.18;4.55;;;;;;;15.87;79.08;100968.50;7395695;19;20483;-57
2023/08/27 06:03:52;;;;;;;7.13;4.50;;;;;;;16.07;78.43;100959.47;7397493;19;20011;-57
2023/08/27 06:06:20;;;;;;;8.98;4.82;;;;;;;16.19;77.75;100956.66;7397229;19;20029;-58
2023/08/27 06:08:47;;;;;;;8.65;4.90;;;;;;;16.25;77.53;100951.53;7395641;19;20114;-57
2023/08/27 06:11:15;;;;;;;7.90;4.70;;;;;;;16.37;77.29;100962.06;7393994;19;20342;-55
2023/08/27 06:13:42;;;;;;;8.63;4.95;;;;;;;16.41;77.34;100955.44;7396749;19;20093;-58
2023/08/27 06:16:10;;;;;;;8.68;4.78;;;;;;;16.46;77.37;100947.84;7398044;19;20035;-57
2023/08/27 06:18:37;;;;;;;7.72;5.03;;;;;;;16.53;77.22;100951.63;7396188;19;20502;-57
2023/08/27 06:21:04;;;;;;;8.30;5.00;;;;;;;16.56;77.16;100949.50;7392859;19;20023;-56
2023/08/27 06:23:33;;;;;;;8.52;5.05;;;;;;;16.40;77.58;100951.94;7395532;19;20021;-58
2023/08/27 06:26:04;;;;;;;8.27;5.03;;;;;;;16.54;76.95;100945.28;7394740;19;20031;-56
2023/08/27 06:28:32;;;;;;;7.85;4.47;;;;;;;16.56;76.49;100940.63;7391792;19;20110;-56
2023/08/27 06:31:00;;;;;;;6.38;4.40;;;;;;;16.60;76.56;100943.81;7393892;19;20513;-56
2023/08/27 06:33:27;;;;;;;8.77;4.60;;;;;;;16.68;77.02;100942.13;7394760;19;20022;-60
2023/08/27 06:35:55;;;;;;;8.88;4.88;;;;;;;16.77;76.82;100948.44;7395380;19;20019;-58
2023/08/27 06:38:22;;;;;;;8.07;4.78;;;;;;;16.84;77.17;100946.84;7395310;19;20018;-58
2023/08/27 06:40:50;;;;;;;8.13;4.97;;;;;;;16.86;77.69;100942.19;7395426;19;20043;-57
2023/08/27 06:43:17;;;;;;;7.70;4.28;;;;;;;17.00;77.57;100930.16;7395676;19;20025;-57
2023/08/27 06:45:44;;;;;;;6.65;4.88;;;;;;;17.10;77.73;100925.59;7396056;19;20090;-56
2023/08/27 06:48:12;;;;;;;7.72;4.60;;;;;;;17.08;77.75;100921.38;7393218;19;20018;-58
2023/08/27 06:50:40;;;;;;;8.38;4.63;;;;;;;17.18;77.66;100928.34;7393339;19;20542;-57
2023/08/27 06:53:07;;;;;;;9.95;5.03;;;;;;;17.20;78.31;100942.41;7394034;19;20027;-57
2023/08/27 06:55:35;;;;;;;9.55;4.68;;;;;;;17.25;78.21;100928.56;7394266;19;20014;-57
2023/08/27 06:58:03;;;;;;;8.48;4.40;;;;;;;17.20;77.73;100917.47;7394993;19;20011;-56
2023/08/27 07:00:31;;;;;;;7.95;3.90;;;;;;;17.26;76.61;100919.56;7393977;19;20046;-55
2023/08/27 07:02:59;;;;;;;5.65;3.80;;;;;;;17.40;75.23;100915.47;7394667;19;20111;-57
2023/08/27 07:05:26;;;;;;;6.93;4.22;;;;;;;17.51;74.73;100918.78;7391893;19;20018;-58
2023/08/27 07:07:54;;;;;;;6.40;4.25;;;;;;;17.56;75.42;100914.81;7393009;19;20509;-57
2023/08/27 07:10:22;;;;;;;6.78;4.57;;;;;;;17.66;75.08;100915.53;7392146;19;20122;-57
2023/08/27 07:12:49;;;;;;;8.65;4.20;;;;;;;17.64;74.33;100926.41;7392497;19;20010;-57
2023/08/27 07:15:16;;;;;;;6.88;4.10;;;;;;;17.70;74.23;100922.25;7392556;19;20010;-58
2023/08/27 07:17:44;;;;;;;6.50;4.28;;;;;;;17.71;74.32;100923.97;7393978;19;20022;-57
2023/08/27 07:20:13;;;;;;;7.90;4.63;;;;;;;17.72;73.56;100920.28;7393074;19;20071;-58
2023/08/27 07:22:41;;;;;;;6.43;4.47;;;;;;;17.69;73.30;100924.09;7391489;19;20029;-58
2023/08/27 07:25:11;;;;;;;7.63;4.43;;;;;;;17.74;73.05;100927.19;7393521;19;20504;-57
2023/08/27 07:27:38;;;;;;;8.07;4.07;;;;;;;17.84;72.95;100921.75;7392432;19;20093;-58
2023/08/27 07:30:06;;;;;;;9.10;3.60;;;;;;;17.92;72.69;100918.28;7392867;19;20039;-58
2023/08/27 07:32:34;;;;;;;6.15;3.72;;;;;;;17.93;71.78;100922.63;7392719;19;20022;-57
2023/08/27 07:35:01;;;;;;;4.70;3.45;;;;;;;17.92;71.45;100927.16;7393837;19;20389;-58
2023/08/27 07:37:29;;;;;;;5.88;3.60;;;;;;;17.90;71.10;100922.97;7394792;19;20488;-57
2023/08/27 07:39:56;;;;;;;7.38;3.55;;;;;;;18.03;70.48;100934.09;7393698;19;20011;-58
2023/08/27 07:42:23;;;;;;;6.53;3.50;;;;;;;18.16;70.71;100937.22;7392876;19;20022;-56
2023/08/27 07:44:51;;;;;;;5.97;3.47;;;;;;;18.22;70.15;100933.06;7393135;19;20019;-57
2023/08/27 07:47:18;;;;;;;6.57;3.30;;;;;;;18.19;69.93;100930.69;7391888;19;20019;-57
2023/08/27 07:49:45;;;;;;;4.90;2.95;;;;;;;18.31;69.92;100939.31;7392106;19;20043;-58
2023/08/27 07:52:13;;;;;;;6.30;3.28;;;;;;;18.24;69.64;100944.47;7390860;19;20502;-58
2023/08/27 07:54:40;;;;;;;6.18;3.47;;;;;;;18.27;69.79;100944.13;7392470;19;20010;-59
2023/08/27 07:57:08;;;;;;;5.63;3.40;;;;;;;18.24;69.99;100939.94;7392037;19;20048;-57
2023/08/27 07:59:35;;;;;;;6.45;3.38;;;;;;;18.35;69.73;100932.63;7390610;19;20018;-55
2023/08/27 08:02:03;;;;;;;5.63;3.20;;;;;;;18.41;69.63;100929.31;7389589;19;20492;-57
2023/08/27 08:04:31;;;;;;;7.07;3.35;;;;;;;18.52;69.26;100920.97;7392425;19;20048;-57
2023/08/27 08:06:58;;;;;;;5.00;3.03;;;;;;;18.65;69.00;100920.53;7392051;19;20015;-57
2023/08/27 08:09:26;;;;;;;5.85;2.95;;;;;;;18.79;68.25;100917.25;7391897;19;20044;-56
2023/08/27 08:11:53;;;;;;;4.70;3.20;;;;;;;18.88;67.92;100908.22;7390006;19;20030;-56
2023/08/27 08:14:21;;;;;;;5.50;3.05;;;;;;;18.98;68.15;100911.63;7392511;19;20494;-57
2023/08/27 08:16:52;;;;;;;6.43;2.90;;;;;;;18.98;67.89;100919.66;7397419;19;20363;-58
2023/08/27 08:19:20;;;;;;;6.68;3.25;;;;;;;19.01;67.92;100913.16;7399917;19;20019;-57
2023/08/27 08:21:47;;;;;;;4.90;2.90;;;;;;;19.07;67.44;100917.84;7394815;19;20037;-56
2023/08/27 08:24:14;;;;;;;3.60;2.53;;;;;;;19.19;67.21;100913.84;7399140;19;20356;-60
2023/08/27 08:26:43;;;;;;;5.35;2.95;;;;;;;19.33;67.65;100912.34;7397291;19;20010;-57
2023/08/27 08:29:10;;;;;;;5.70;3.00;;;;;;;19.49;67.29;100900.78;7396114;19;20086;-57
2023/08/27 08:31:38;;;;;;;4.65;2.85;;;;;;;19.55;66.69;100910.84;7395504;19;20023;-57
2023/08/27 08:34:05;;;;;;;4.95;2.72;;;;;;;19.62;66.26;100908.38;7396736;19;20011;-58
2023/08/27 08:36:33;;;;;;;5.47;2.72;;;;;;;19.69;66.72;100904.84;7398245;19;20377;-58
2023/08/27 08:39:00;;;;;;;5.57;2.78;;;;;;;19.66;66.81;100896.28;7398696;19;20081;-57
2023/08/27 08:41:28;;;;;;;6.55;2.70;;;;;;;19.67;67.15;100900.63;7395605;19;20492;-58
2023/08/27 08:44:07;;;;;;;3.92;2.60;;;;;;;19.63;67.19;100900.13;7398795;19;20011;-58
2023/08/27 08:46:38;;;;;;;6.70;2.88;;;;;;;19.51;67.87;100901.47;7399931;19;20060;-58
2023/08/27 08:49:11;;;;;;;5.20;2.60;;;;;;;19.56;67.41;100898.25;7395441;19;20018;-55
2023/08/27 08:51:39;;;;;;;7.97;2.70;;;;;;;19.66;67.24;100897.13;7395589;19;20019;-53
2023/08/27 08:54:14;;;;;;;6.82;3.00;;;;;;;19.94;66.66;100905.66;7399637;19;20394;-55
2023/08/27 08:56:48;;;;;;;6.78;3.35;;;;;;;20.02;66.28;100902.09;7398529;19;20471;-57
2023/08/27 08:59:15;;;;;;;5.35;3.10;;;;;;;19.99;66.27;100902.44;7398173;19;20039;-56
2023/08/27 09:01:43;;;;;;;5.53;2.88;;;;;;;19.97;66.18;100899.09;7394759;19;20090;-55
2023/08/27 09:04:13;;;;;;;6.55;3.10;;;;;;;19.94;65.91;100892.19;7398848;19;20048;-57
2023/08/27 09:06:41;;;;;;;8.70;3.90;;;;;;;19.91;66.93;100897.91;7397446;19;20019;-57
2023/08/27 09:09:10;;;;;;;8.05;3.50;;;;;;;19.99;66.04;100891.69;7394948;19;20019;-57
2023/08/27 09:11:38;;;;;;;7.00;3.63;;;;;;;20.00;65.86;100888.00;7394529;19;20367;-57
2023/08/27 09:14:06;;;;;;;7.45;3.50;;;;;;;20.12;65.27;100883.09;7397188;19;20104;-57
2023/08/27 09:16:34;;;;;;;5.38;3.40;;;;;;;20.19;64.80;100893.00;7397662;19;20043;-57
2023/08/27 09:19:01;;;;;;;5.68;3.50;;;;;;;20.31;64.47;100895.31;7396973;19;20370;-58
2023/08/27 09:21:29;;;;;;;7.00;3.00;;;;;;;20.33;64.12;100893.28;7394522;19;20476;-59
2023/08/27 09:23:57;;;;;;;7.75;3.80;;;;;;;20.18;64.26;100894.03;7399500;19;20050;-57
2023/08/27 09:26:25;;;;;;;6.60;3.80;;;;;;;20.02;64.96;100901.28;7395447;19;20025;-57
2023/08/27 09:28:54;;;;;;;6.53;3.60;;;;;;;19.88;65.45;100906.34;7393236;19;20754;-57
2023/08/27 09:31:39;;;;;;;6.57;4.38;;;;;;;19.78;65.74;100904.84;7394668;19;20018;-57
2023/08/27 09:34:07;;;;;;;9.05;5.63;;;;;;;19.44;66.73;100913.88;7396474;19;20090;-57
2023/08/27 09:36:38;;;;;;;9.38;7.35;;;;;;;19.33;66.43;100911.50;7394993;19;20089;-57
2023/08/27 09:39:10;;;;;;;11.63;9.15;;;;;;;19.15;66.90;100917.84;7397665;19;20022;-57
2023/08/27 09:41:42;;;;;;;12.65;10.05;;;;;;;18.99;67.41;100931.25;7394377;19;20018;-53
2023/08/27 09:44:10;;;;;;;12.38;9.98;;;;;;;18.99;67.72;100937.44;7396379;19;20409;-55
2023/08/27 09:46:38;;;;;;;11.30;9.02;;;;;;;19.10;67.63;100941.69;7396167;19;20018;-56
2023/08/27 09:49:07;;;;;;;10.50;8.43;;;;;;;19.20;67.63;100939.69;7394707;19;20019;-57
2023/08/27 09:51:39;;;;;;;9.02;6.80;;;;;;;19.08;67.93;100950.88;7394816;19;20439;-53
2023/08/27 09:54:17;;;;;;;10.18;6.28;;;;;;;19.00;67.78;100951.69;7396049;19;20018;-56
2023/08/27 09:56:46;;;;;;;7.10;4.80;;;;;;;18.81;68.32;100966.25;7396534;19;20035;-54
2023/08/27 09:59:19;;;;;;;7.10;5.00;;;;;;;18.74;69.40;100976.78;7395000;19;20039;-52
2023/08/27 10:01:50;;;;;;;8.32;5.07;;;;;;;18.52;70.50;100975.47;7392516;19;20564;-58
2023/08/27 10:04:20;;;;;;;7.38;4.50;;;;;;;18.47;71.62;100976.97;7396582;19;20014;-57
2023/08/27 10:06:48;;;;;;;10.90;4.90;;;;;;;18.49;72.20;100966.91;7395502;19;20011;-56
2023/08/27 10:09:16;;;;;;;7.95;3.72;;;;;;;18.24;72.62;100950.69;7393929;19;20029;-56
2023/08/27 10:11:45;;;;;;;6.32;3.50;;;;;;;18.14;72.96;100941.06;7393257;19;20018;-52
2023/08/27 10:14:17;;;;;;;6.03;3.35;;;;;;;18.27;73.06;100936.09;7396239;19;20014;-58
2023/08/27 10:16:48;;;;;;;6.97;3.33;;;;;;;18.36;73.27;100932.47;7395933;19;20026;-59
2023/08/27 10:19:16;;;;;;;5.78;2.90;;;;;;;18.33;72.39;100924.75;7393393;19;20018;-57
2023/08/27 10:21:44;;;;;;;3.42;2.13;;;;;;;18.32;72.38;100925.75;7393204;19;20023;-56
2023/08/27 10:24:11;;;;;;;5.88;2.38;;;;;;;18.34;71.77;100931.78;7395823;19;20324;-57
2023/08/27 10:26:42;;;;;;;5.43;1.73;;;;;;;18.36;71.39;100932.47;7393875;19;20492;-57
2023/08/27 10:29:11;;;;;;;3.28;1.70;;;;;;;18.32;71.47;100925.75;7393439;19;20022;-59
2023/08/27 10:31:39;;;;;;;3.92;2.10;;;;;;;18.36;71.69;100910.19;7390610;19;20391;-59
2023/08/27 10:34:08;;;;;;;4.57;1.90;;;;;;;18.39;71.91;100908.03;7394195;19;20029;-58
2023/08/27 10:36:40;;;;;;;3.10;1.88;;;;;;;18.41;71.39;100905.19;7392665;19;20040;-59
2023/08/27 10:39:08;;;;;;;5.32;1.77;;;;;;;18.36;70.91;100894.94;7392447;19;20496;-58
2023/08/27 10:41:36;;;;;;;4.05;1.95;;;;;;;18.34;70.42;100888.03;7391863;19;20023;-59
2023/08/27 10:44:05;;;;;;;2.90;1.63;;;;;;;18.33;70.27;100876.47;7392330;19;20074;-59
2023/08/27 10:46:32;;;;;;;2.78;1.63;;;;;;;18.38;70.59;100879.50;7394146;19;20017;-59
2023/08/27 10:48:59;;;;;;;2.15;1.30;;;;;;;18.39;70.79;100872.31;7392472;19;20015;-59
2023/08/27 10:51:31;;;;;;;2.97;1.45;;;;;;;18.46;70.31;100871.50;7391517;19;20015;-59
2023/08/27 10:54:00;;;;;;;2.13;1.42;;;;;;;18.55;70.39;100867.03;7393809;19;20025;-56
2023/08/27 10:56:31;;;;;;;2.83;1.30;;;;;;;18.46;69.53;100866.13;7394313;19;20011;-58
2023/08/27 10:59:00;;;;;;;2.65;1.15;;;;;;;18.40;69.47;100855.22;7394140;19;20347;-55
2023/08/27 11:01:33;;;;;;;2.60;1.33;;;;;;;18.61;69.07;100858.31;7392602;19;20082;-56
2023/08/27 11:04:07;;;;;;;4.75;1.30;;;;;;;18.81;68.84;100858.91;7393229;19;20074;-55
2023/08/27 11:06:45;;;;;;;2.78;1.27;;;;;;;18.89;68.35;100861.63;7393667;19;20384;-57
2023/08/27 11:09:25;;;;;;;2.67;1.40;;;;;;;18.88;67.78;100854.56;7391144;19;20025;-57
2023/08/27 11:11:55;;;;;;;2.60;1.45;;;;;;;18.91;67.31;100854.22;7390355;19;20022;-57
2023/08/27 11:14:24;;;;;;;1.25;1.02;;;;;;;18.94;67.61;100859.28;7392739;19;20108;-58
2023/08/27 11:17:00;;;;;;;3.05;1.65;;;;;;;19.05;67.22;100843.88;7392660;19;20022;-59
2023/08/27 11:19:37;;;;;;;3.25;1.65;;;;;;;19.11;66.58;100849.38;7392847;19;20022;-58
2023/08/27 11:22:20;;;;;;;2.80;1.42;;;;;;;19.09;66.19;100855.94;7390719;19;20014;-59
2023/08/27 11:24:52;;;;;;;4.05;1.80;;;;;;;19.11;66.22;100848.56;7392469;19;20022;-59
2023/08/27 11:27:21;;;;;;;2.00;1.48;;;;;;;19.20;65.32;100853.78;7390724;19;20034;-58
2023/08/27 11:29:55;;;;;;;2.88;1.67;;;;;;;19.28;65.16;100849.41;7390577;19;20015;-59